createdAt,value
2019-02-18T00:00:08.104Z,62.38
2019-02-18T00:01:13.394Z,63.23
2019-02-18T00:02:17.115Z,56.88
2019-02-18T00:03:20.761Z,58.80
2019-02-18T00:04:24.399Z,60.10
2019-02-18T00:05:28.042Z,66.50
2019-02-18T00:06:31.675Z,55.60
2019-02-18T00:07:35.344Z,62.65
2019-02-18T00:08:38.985Z,59.00
2019-02-18T00:09:42.707Z,65.40
2019-02-18T00:10:46.358Z,59.85
2019-02-18T00:11:50.278Z,59.88
2019-02-18T00:12:54.323Z,60.45
2019-02-18T00:13:57.966Z,55.73
2019-02-18T00:15:01.610Z,64.32
2019-02-18T00:16:05.500Z,56.15
2019-02-18T00:17:09.141Z,58.73
2019-02-18T00:18:13.151Z,55.50
2019-02-18T00:19:16.786Z,56.02
2019-02-18T00:20:20.419Z,52.93
2019-02-18T00:21:24.060Z,56.42
2019-02-18T00:22:27.626Z,53.40
2019-02-18T00:23:31.306Z,57.30
2019-02-18T00:24:34.928Z,55.85
2019-02-18T00:25:38.568Z,54.08
2019-02-18T00:26:42.214Z,55.10
2019-02-18T00:27:45.853Z,57.30
2019-02-18T00:28:49.538Z,51.63
2019-02-18T00:29:53.164Z,57.50
2019-02-18T00:30:56.804Z,58.52
2019-02-18T00:32:00.442Z,58.05
2019-02-18T00:33:04.151Z,51.42
2019-02-18T00:34:07.817Z,51.90
2019-02-18T00:35:11.463Z,57.48
2019-02-18T00:36:15.099Z,61.02
2019-02-18T00:37:24.511Z,57.40
2019-02-18T00:38:24.122Z,57.35
2019-02-18T00:39:27.792Z,59.42
2019-02-18T00:40:31.834Z,54.38
2019-02-18T00:41:35.489Z,57.60
2019-02-18T00:42:39.129Z,68.65
2019-02-18T00:43:42.783Z,56.58
2019-02-18T00:44:46.442Z,58.68
2019-02-18T00:45:50.013Z,58.58
2019-02-18T00:46:53.729Z,59.05
2019-02-18T00:47:57.428Z,57.17
2019-02-18T00:49:01.055Z,55.12
2019-02-18T00:50:06.444Z,62.03
2019-02-18T00:51:10.465Z,60.12
2019-02-18T00:52:14.101Z,53.40
2019-02-18T00:53:17.740Z,52.67
2019-02-18T00:54:21.391Z,58.95
2019-02-18T00:55:25.077Z,56.63
2019-02-18T00:56:28.709Z,56.48
2019-02-18T00:57:32.344Z,55.70
2019-02-18T00:58:35.978Z,56.25
2019-02-18T00:59:39.565Z,58.98
2019-02-18T01:00:43.234Z,52.65
2019-02-18T01:01:46.873Z,59.98
2019-02-18T01:02:50.517Z,51.65
2019-02-18T01:03:54.155Z,52.60
2019-02-18T01:04:57.810Z,50.63
2019-02-18T01:06:01.480Z,53.98
2019-02-18T01:07:05.119Z,59.60
2019-02-18T01:08:09.045Z,55.00
2019-02-18T01:09:12.691Z,50.55
2019-02-18T01:10:16.403Z,49.95
2019-02-18T01:11:20.077Z,57.30
2019-02-18T01:12:23.715Z,54.08
2019-02-18T01:13:27.350Z,55.88
2019-02-18T01:14:30.984Z,50.15
2019-02-18T01:15:34.623Z,53.28
2019-02-18T01:16:38.388Z,54.27
2019-02-18T01:17:42.020Z,47.88
2019-02-18T01:18:45.981Z,46.25
2019-02-18T01:19:49.624Z,51.18
2019-02-18T01:20:53.188Z,53.42
2019-02-18T01:21:56.854Z,52.95
2019-02-18T01:23:00.500Z,52.00
2019-02-18T01:24:04.137Z,50.10
2019-02-18T01:25:10.171Z,48.15
2019-02-18T01:26:13.804Z,51.53
2019-02-18T01:27:17.406Z,43.63
2019-02-18T01:28:21.041Z,48.25
2019-02-18T01:29:24.680Z,49.60
2019-02-18T01:30:28.357Z,49.95
2019-02-18T01:31:31.892Z,52.93
2019-02-18T01:32:35.491Z,46.40
2019-02-18T01:33:39.420Z,44.67
2019-02-18T01:34:43.059Z,48.48
2019-02-18T01:35:47.018Z,47.55
2019-02-18T01:36:50.659Z,48.15
2019-02-18T01:37:54.325Z,43.02
2019-02-18T01:38:57.960Z,50.10
2019-02-18T01:40:01.596Z,52.58
2019-02-18T01:41:05.235Z,53.73
2019-02-18T01:42:08.871Z,47.10
2019-02-18T01:43:15.225Z,41.75
2019-02-18T01:44:18.936Z,48.83
2019-02-18T01:45:22.564Z,53.08
2019-02-18T01:46:26.226Z,48.87
2019-02-18T01:47:29.873Z,54.08
2019-02-18T01:48:33.570Z,48.35
2019-02-18T01:49:37.201Z,42.85
2019-02-18T01:50:40.910Z,48.38
2019-02-18T01:51:44.554Z,47.62
2019-02-18T01:52:48.188Z,49.30
2019-02-18T01:53:51.794Z,50.58
2019-02-18T01:54:55.427Z,50.65
2019-02-18T01:55:59.071Z,50.35
2019-02-18T01:57:02.715Z,50.30
2019-02-18T01:58:06.363Z,47.88
2019-02-18T01:59:10.003Z,54.77
2019-02-18T02:00:16.013Z,57.15
2019-02-18T02:01:19.652Z,58.70
2019-02-18T02:02:23.646Z,56.92
2019-02-18T02:03:27.386Z,54.35
2019-02-18T02:04:31.049Z,52.40
2019-02-18T02:05:34.685Z,52.58
2019-02-18T02:06:38.320Z,51.02
2019-02-18T02:07:41.964Z,49.73
2019-02-18T02:08:45.601Z,52.50
2019-02-18T02:09:49.337Z,49.88
2019-02-18T02:10:52.968Z,50.30
2019-02-18T02:11:56.609Z,50.03
2019-02-18T02:13:25.129Z,52.05
2019-02-18T02:14:29.153Z,47.27
2019-02-18T02:15:33.365Z,50.25
2019-02-18T02:16:36.996Z,47.13
2019-02-18T02:17:40.556Z,47.73
2019-02-18T02:18:44.191Z,52.78
2019-02-18T02:19:48.131Z,50.00
2019-02-18T02:20:51.764Z,55.17
2019-02-18T02:21:55.334Z,55.58
2019-02-18T02:22:58.923Z,53.90
2019-02-18T02:24:02.585Z,53.68
2019-02-18T02:25:06.638Z,53.15
2019-02-18T02:26:10.280Z,52.15
2019-02-18T02:27:13.923Z,51.68
2019-02-18T02:28:17.627Z,51.85
2019-02-18T02:29:21.276Z,50.73
2019-02-18T02:30:25.029Z,49.42
2019-02-18T02:31:28.735Z,55.28
2019-02-18T02:32:32.375Z,51.58
2019-02-18T02:33:35.938Z,52.90
2019-02-18T02:34:39.570Z,56.02
2019-02-18T02:35:43.235Z,49.73
2019-02-18T02:36:46.865Z,50.05
2019-02-18T02:37:50.510Z,49.70
2019-02-18T02:38:54.232Z,57.58
2019-02-18T02:39:57.864Z,57.35
2019-02-18T02:41:01.527Z,62.27
2019-02-18T02:42:05.172Z,58.90
2019-02-18T02:43:08.800Z,61.48
2019-02-18T02:44:12.363Z,67.10
2019-02-18T02:45:16.005Z,58.48
2019-02-18T02:46:19.662Z,57.03
2019-02-18T02:47:23.302Z,55.92
2019-02-18T02:48:29.278Z,54.03
2019-02-18T02:49:32.912Z,57.03
2019-02-18T02:50:36.564Z,56.55
2019-02-18T02:51:40.191Z,56.33
2019-02-18T02:52:43.833Z,55.03
2019-02-18T02:53:47.465Z,57.80
2019-02-18T02:54:51.060Z,58.50
2019-02-18T02:55:54.699Z,56.80
2019-02-18T02:56:58.288Z,56.68
2019-02-18T02:58:01.926Z,58.33
2019-02-18T02:59:05.568Z,62.85
2019-02-18T03:00:12.005Z,63.90
2019-02-18T03:01:15.645Z,59.53
2019-02-18T03:02:19.316Z,47.05
2019-02-18T03:03:22.960Z,51.18
2019-02-18T03:04:26.591Z,49.58
2019-02-18T03:05:30.227Z,54.60
2019-02-18T03:06:33.889Z,56.85
2019-02-18T03:07:37.563Z,50.30
2019-02-18T03:08:41.191Z,50.20
2019-02-18T03:09:44.827Z,52.75
2019-02-18T03:10:48.538Z,50.33
2019-02-18T03:11:52.175Z,51.83
2019-02-18T03:12:55.939Z,52.73
2019-02-18T03:13:59.583Z,49.88
2019-02-18T03:15:03.712Z,52.73
2019-02-18T03:16:07.363Z,54.33
2019-02-18T03:17:11.008Z,49.83
2019-02-18T03:18:14.726Z,51.70
2019-02-18T03:19:18.396Z,48.87
2019-02-18T03:20:21.961Z,48.20
2019-02-18T03:21:25.612Z,47.45
2019-02-18T03:22:29.248Z,50.73
2019-02-18T03:23:32.980Z,52.55
2019-02-18T03:24:36.538Z,48.80
2019-02-18T03:25:40.173Z,48.85
2019-02-18T03:26:43.811Z,56.58
2019-02-18T03:27:48.344Z,52.60
2019-02-18T03:29:06.885Z,50.88
2019-02-18T03:30:39.130Z,52.27
2019-02-18T03:31:42.765Z,49.80
2019-02-18T03:32:46.419Z,51.20
2019-02-18T03:33:53.293Z,53.73
2019-02-18T03:34:56.960Z,53.73
2019-02-18T03:36:00.605Z,51.30
2019-02-18T03:37:04.245Z,49.05
2019-02-18T03:38:07.878Z,49.95
2019-02-18T03:39:11.547Z,54.77
2019-02-18T03:40:15.217Z,47.17
2019-02-18T03:41:18.863Z,51.95
2019-02-18T03:42:22.577Z,51.15
2019-02-18T03:43:26.829Z,52.83
2019-02-18T03:44:30.461Z,51.05
2019-02-18T03:45:34.056Z,48.02
2019-02-18T03:46:37.688Z,50.95
2019-02-18T03:47:41.420Z,52.65
2019-02-18T03:48:44.981Z,49.50
2019-02-18T03:49:48.627Z,52.08
2019-02-18T03:50:53.278Z,50.45
2019-02-18T03:51:56.953Z,52.23
2019-02-18T03:53:00.978Z,56.85
2019-02-18T03:54:04.624Z,50.20
2019-02-18T03:55:10.076Z,49.77
2019-02-18T03:56:13.743Z,49.63
2019-02-18T03:57:17.412Z,49.45
2019-02-18T03:58:21.349Z,47.05
2019-02-18T03:59:25.033Z,49.25
2019-02-18T04:00:28.666Z,51.70
2019-02-18T04:01:32.326Z,50.63
2019-02-18T04:02:35.973Z,54.33
2019-02-18T04:03:39.609Z,52.30
2019-02-18T04:04:43.257Z,54.45
2019-02-18T04:05:46.917Z,53.80
2019-02-18T04:06:50.586Z,53.17
2019-02-18T04:07:54.225Z,56.13
2019-02-18T04:08:58.014Z,53.90
2019-02-18T04:10:01.575Z,56.48
2019-02-18T04:11:05.224Z,53.60
2019-02-18T04:12:08.816Z,54.27
2019-02-18T04:13:12.450Z,53.60
2019-02-18T04:14:16.094Z,51.92
2019-02-18T04:15:19.820Z,50.05
2019-02-18T04:16:23.464Z,55.73
2019-02-18T04:17:27.121Z,56.10
2019-02-18T04:18:30.770Z,55.23
2019-02-18T04:19:34.339Z,58.33
2019-02-18T04:20:37.972Z,51.73
2019-02-18T04:21:41.618Z,52.60
2019-02-18T04:22:45.298Z,56.08
2019-02-18T04:23:49.047Z,49.45
2019-02-18T04:24:52.683Z,54.90
2019-02-18T04:25:56.250Z,52.08
2019-02-18T04:26:59.908Z,53.15
2019-02-18T04:28:03.574Z,51.68
2019-02-18T04:29:07.150Z,56.10
2019-02-18T04:30:13.718Z,50.90
2019-02-18T04:31:17.393Z,54.20
2019-02-18T04:32:21.152Z,56.25
2019-02-18T04:33:24.820Z,58.15
2019-02-18T04:34:28.397Z,54.93
2019-02-18T04:35:34.086Z,54.88
2019-02-18T04:36:37.836Z,56.50
2019-02-18T04:37:41.485Z,50.45
2019-02-18T04:38:53.876Z,55.33
2019-02-18T04:39:50.538Z,54.73
2019-02-18T04:40:54.181Z,54.33
2019-02-18T04:41:57.753Z,55.95
2019-02-18T04:43:01.405Z,52.40
2019-02-18T04:44:05.084Z,49.70
2019-02-18T04:45:11.677Z,52.55
2019-02-18T04:46:15.680Z,59.38
2019-02-18T04:47:19.306Z,54.93
2019-02-18T04:48:22.886Z,52.73
2019-02-18T04:49:26.569Z,57.95
2019-02-18T04:50:30.208Z,53.10
2019-02-18T04:51:33.777Z,51.73
2019-02-18T04:52:37.424Z,51.28
2019-02-18T04:53:41.067Z,51.90
2019-02-18T04:54:44.737Z,49.55
2019-02-18T04:55:48.375Z,62.03
2019-02-18T04:56:52.369Z,55.95
2019-02-18T04:57:56.013Z,46.58
2019-02-18T04:58:59.651Z,47.70
2019-02-18T05:00:03.339Z,51.10
2019-02-18T05:01:07.085Z,54.63
2019-02-18T05:02:11.069Z,54.65
2019-02-18T05:03:14.712Z,59.42
2019-02-18T05:04:18.363Z,50.50
2019-02-18T05:05:22.047Z,54.18
2019-02-18T05:06:25.745Z,49.23
2019-02-18T05:07:29.329Z,50.75
2019-02-18T05:08:32.957Z,51.68
2019-02-18T05:09:36.570Z,50.67
2019-02-18T05:10:40.246Z,54.63
2019-02-18T05:11:44.936Z,50.70
2019-02-18T05:12:48.440Z,50.45
2019-02-18T05:13:52.249Z,49.35
2019-02-18T05:14:55.890Z,55.92
2019-02-18T05:15:59.496Z,62.43
2019-02-18T05:17:03.257Z,58.78
2019-02-18T05:18:06.902Z,62.27
2019-02-18T05:19:10.535Z,60.70
2019-02-18T05:20:14.369Z,53.55
2019-02-18T05:21:18.015Z,60.65
2019-02-18T05:22:21.660Z,58.50
2019-02-18T05:23:25.227Z,64.87
2019-02-18T05:24:28.877Z,60.95
2019-02-18T05:25:32.611Z,57.50
2019-02-18T05:26:36.278Z,56.85
2019-02-18T05:27:39.945Z,68.92
2019-02-18T05:28:43.494Z,61.40
2019-02-18T05:29:47.129Z,64.20
2019-02-18T05:30:50.770Z,63.75
2019-02-18T05:31:54.386Z,65.00
2019-02-18T05:32:58.013Z,60.35
2019-02-18T05:34:01.659Z,72.85
2019-02-18T05:35:06.202Z,71.37
2019-02-18T05:36:10.156Z,72.40
2019-02-18T05:37:13.911Z,64.67
2019-02-18T05:38:17.974Z,77.55
2019-02-18T05:39:21.626Z,61.40
2019-02-18T05:40:25.626Z,66.97
2019-02-18T05:41:31.167Z,66.70
2019-02-18T05:42:34.588Z,73.00
2019-02-18T05:43:38.225Z,73.70
2019-02-18T05:44:41.806Z,62.58
2019-02-18T05:45:45.478Z,59.53
2019-02-18T05:46:49.126Z,59.73
2019-02-18T05:47:52.792Z,64.60
2019-02-18T05:48:56.358Z,65.05
2019-02-18T05:49:59.996Z,67.92
2019-02-18T05:51:03.673Z,73.25
2019-02-18T05:52:07.694Z,74.40
2019-02-18T05:53:11.458Z,75.28
2019-02-18T05:54:15.027Z,73.07
2019-02-18T05:55:18.681Z,68.12
2019-02-18T05:56:22.333Z,77.58
2019-02-18T05:57:25.965Z,67.35
2019-02-18T05:58:29.637Z,67.37
2019-02-18T05:59:33.297Z,61.88
2019-02-18T06:00:36.927Z,64.15
2019-02-18T06:01:40.573Z,61.85
2019-02-18T06:02:44.213Z,60.15
2019-02-18T06:03:47.887Z,59.77
2019-02-18T06:04:51.540Z,57.00
2019-02-18T06:05:55.263Z,69.12
2019-02-18T06:06:59.219Z,66.00
2019-02-18T06:08:02.835Z,64.30
2019-02-18T06:09:06.502Z,64.12
2019-02-18T06:10:10.152Z,66.95
2019-02-18T06:11:13.722Z,60.85
2019-02-18T06:12:17.362Z,62.50
2019-02-18T06:13:24.996Z,70.17
2019-02-18T06:14:28.677Z,69.27
2019-02-18T06:15:32.314Z,68.75
2019-02-18T06:16:37.869Z,66.10
2019-02-18T06:17:42.668Z,72.78
2019-02-18T06:18:46.332Z,66.95
2019-02-18T06:19:50.004Z,59.33
2019-02-18T06:20:53.956Z,78.07
2019-02-18T06:21:57.596Z,96.55
2019-02-18T06:23:01.172Z,67.25
2019-02-18T06:24:05.147Z,63.48
2019-02-18T06:25:08.827Z,67.87
2019-02-18T06:26:12.465Z,78.10
2019-02-18T06:27:17.889Z,91.37
2019-02-18T06:28:21.852Z,91.63
2019-02-18T06:29:25.525Z,91.10
2019-02-18T06:30:29.691Z,95.62
2019-02-18T06:31:33.426Z,94.25
2019-02-18T06:32:37.080Z,87.22
2019-02-18T06:33:40.716Z,80.53
2019-02-18T06:34:44.355Z,88.20
2019-02-18T06:35:48.024Z,78.12
2019-02-18T06:36:51.665Z,86.55
2019-02-18T06:37:55.309Z,85.70
2019-02-18T06:38:58.962Z,78.72
2019-02-18T06:40:02.589Z,83.12
2019-02-18T06:41:06.260Z,81.72
2019-02-18T06:42:11.229Z,80.38
2019-02-18T06:43:15.135Z,83.37
2019-02-18T06:44:20.671Z,84.42
2019-02-18T06:45:25.955Z,82.97
2019-02-18T06:46:31.604Z,79.07
2019-02-18T06:47:35.247Z,81.67
2019-02-18T06:48:40.971Z,86.20
2019-02-18T06:49:44.891Z,80.12
2019-02-18T06:50:48.597Z,86.12
2019-02-18T06:51:53.136Z,81.12
2019-02-18T06:53:00.809Z,77.82
2019-02-18T06:54:04.457Z,87.95
2019-02-18T06:55:09.367Z,91.37
2019-02-18T06:56:13.077Z,84.45
2019-02-18T06:57:21.119Z,89.17
2019-02-18T06:58:26.399Z,95.35
2019-02-18T06:59:31.719Z,82.75
2019-02-18T07:00:42.413Z,90.85
2019-02-18T07:02:05.598Z,90.05
2019-02-18T07:03:24.193Z,88.90
2019-02-18T07:04:32.517Z,97.67
2019-02-18T07:05:40.407Z,97.42
2019-02-18T07:06:54.833Z,85.05
2019-02-18T07:08:00.110Z,87.92
2019-02-18T07:09:08.265Z,90.80
2019-02-18T07:10:22.376Z,92.72
2019-02-18T07:11:33.649Z,91.45
2019-02-18T07:12:38.935Z,90.85
2019-02-18T07:13:42.569Z,82.35
2019-02-18T07:14:46.253Z,103.07
2019-02-18T07:15:49.892Z,98.60
2019-02-18T07:16:53.539Z,105.80
2019-02-18T07:17:57.110Z,96.17
2019-02-18T07:19:01.067Z,87.60
2019-02-18T07:20:06.538Z,89.50
2019-02-18T07:21:10.222Z,84.35
2019-02-18T07:22:13.845Z,84.17
2019-02-18T07:23:18.077Z,90.80
2019-02-18T07:24:21.709Z,88.00
2019-02-18T07:25:26.618Z,85.17
2019-02-18T07:26:30.252Z,93.25
2019-02-18T07:27:33.946Z,86.22
2019-02-18T07:28:37.607Z,93.45
2019-02-18T07:29:41.259Z,88.33
2019-02-18T07:30:45.317Z,87.42
2019-02-18T07:31:50.707Z,88.33
2019-02-18T07:32:54.312Z,88.82
2019-02-18T07:33:57.950Z,91.60
2019-02-18T07:35:01.588Z,90.90
2019-02-18T07:36:05.280Z,91.37
2019-02-18T07:37:08.925Z,92.65
2019-02-18T07:38:13.720Z,89.20
2019-02-18T07:39:17.241Z,92.40
2019-02-18T07:40:20.892Z,86.40
2019-02-18T07:41:24.565Z,93.52
2019-02-18T07:42:28.277Z,93.80
2019-02-18T07:43:32.016Z,88.45
2019-02-18T07:44:35.738Z,87.88
2019-02-18T07:45:39.376Z,94.67
2019-02-18T07:46:43.053Z,89.47
2019-02-18T07:47:46.686Z,89.13
2019-02-18T07:48:50.318Z,88.43
2019-02-18T07:49:53.963Z,94.63
2019-02-18T07:50:57.948Z,91.50
2019-02-18T07:52:01.635Z,91.80
2019-02-18T07:53:05.625Z,100.13
2019-02-18T07:54:10.354Z,100.42
2019-02-18T07:55:14.163Z,105.30
2019-02-18T07:56:23.475Z,96.17
2019-02-18T07:57:28.587Z,107.70
2019-02-18T07:58:32.640Z,100.95
2019-02-18T07:59:36.310Z,106.83
2019-02-18T08:00:39.949Z,98.20
2019-02-18T08:01:43.601Z,91.28
2019-02-18T08:02:47.250Z,90.62
2019-02-18T08:03:50.980Z,93.47
2019-02-18T08:04:54.669Z,90.87
2019-02-18T08:05:58.305Z,93.47
2019-02-18T08:07:01.961Z,85.23
2019-02-18T08:08:05.634Z,86.17
2019-02-18T08:09:09.238Z,82.27
2019-02-18T08:10:12.882Z,86.97
2019-02-18T08:11:16.505Z,76.00
2019-02-18T08:12:20.278Z,73.00
2019-02-18T08:13:23.931Z,69.03
2019-02-18T08:14:27.627Z,70.53
2019-02-18T08:15:31.323Z,69.37
2019-02-18T08:16:34.974Z,67.67
2019-02-18T08:17:38.976Z,69.30
2019-02-18T08:18:42.612Z,66.47
2019-02-18T08:19:46.315Z,66.50
2019-02-18T08:20:50.021Z,70.50
2019-02-18T08:21:53.732Z,74.73
2019-02-18T08:22:57.394Z,69.83
2019-02-18T08:24:01.026Z,70.93
2019-02-18T08:25:06.714Z,66.43
2019-02-18T08:26:10.668Z,68.20
2019-02-18T08:27:14.320Z,68.53
2019-02-18T08:28:17.929Z,66.67
2019-02-18T08:29:21.571Z,60.23
2019-02-18T08:30:25.216Z,56.70
2019-02-18T08:31:28.849Z,57.67
2019-02-18T08:32:32.479Z,60.33
2019-02-18T08:33:36.153Z,59.17
2019-02-18T08:34:39.823Z,60.60
2019-02-18T08:35:43.392Z,59.30
2019-02-18T08:36:47.033Z,54.03
2019-02-18T08:37:50.665Z,57.73
2019-02-18T08:38:54.281Z,57.37
2019-02-18T08:39:57.929Z,54.30
2019-02-18T08:41:01.556Z,56.07
2019-02-18T08:42:05.203Z,56.57
2019-02-18T08:43:08.849Z,56.17
2019-02-18T08:44:12.510Z,56.60
2019-02-18T08:45:16.253Z,58.10
2019-02-18T08:46:19.890Z,52.37
2019-02-18T08:47:23.536Z,52.10
2019-02-18T08:48:27.180Z,51.70
2019-02-18T08:49:30.922Z,62.17
2019-02-18T08:50:34.570Z,46.97
2019-02-18T08:51:38.131Z,51.20
2019-02-18T08:52:41.765Z,44.47
2019-02-18T08:53:47.775Z,46.37
2019-02-18T08:54:56.655Z,44.03
2019-02-18T08:55:56.206Z,46.63
2019-02-18T08:57:00.270Z,49.17
2019-02-18T08:58:03.922Z,53.73
2019-02-18T08:59:07.562Z,51.07
2019-02-18T09:00:14.137Z,45.03
2019-02-18T09:01:18.084Z,44.63
2019-02-18T09:02:21.650Z,45.17
2019-02-18T09:03:25.303Z,44.80
2019-02-18T09:04:28.941Z,45.47
2019-02-18T09:05:32.622Z,44.17
2019-02-18T09:06:36.432Z,44.17
2019-02-18T09:07:40.075Z,43.60
2019-02-18T09:08:43.711Z,44.33
2019-02-18T09:09:47.359Z,41.57
2019-02-18T09:10:51.028Z,46.47
2019-02-18T09:11:54.673Z,44.53
2019-02-18T09:12:58.321Z,47.10
2019-02-18T09:14:01.958Z,46.60
2019-02-18T09:15:07.495Z,46.73
2019-02-18T09:16:11.185Z,41.80
2019-02-18T09:17:14.891Z,40.17
2019-02-18T09:18:18.543Z,42.00
2019-02-18T09:19:22.811Z,43.70
2019-02-18T09:20:26.453Z,42.40
2019-02-18T09:21:31.861Z,44.10
2019-02-18T09:22:55.242Z,39.47
2019-02-18T09:24:00.726Z,46.00
2019-02-18T09:25:07.804Z,41.10
2019-02-18T09:26:13.069Z,42.37
2019-02-18T09:27:16.797Z,39.50
2019-02-18T09:28:20.466Z,41.47
2019-02-18T09:29:24.189Z,40.03
2019-02-18T09:30:29.461Z,40.97
2019-02-18T09:31:34.826Z,41.53
2019-02-18T09:32:38.478Z,37.27
2019-02-18T09:33:42.541Z,42.33
2019-02-18T09:34:46.184Z,38.67
2019-02-18T09:35:49.826Z,39.47
2019-02-18T09:36:56.241Z,39.17
2019-02-18T09:38:00.053Z,38.03
2019-02-18T09:39:04.805Z,39.37
2019-02-18T09:40:10.704Z,39.40
2019-02-18T09:41:14.335Z,39.40
2019-02-18T09:42:17.972Z,38.60
2019-02-18T09:43:21.614Z,40.17
2019-02-18T09:44:25.293Z,43.43
2019-02-18T09:45:28.937Z,40.17
2019-02-18T09:46:32.646Z,43.20
2019-02-18T09:47:36.282Z,39.87
2019-02-18T09:48:39.909Z,44.50
2019-02-18T09:49:43.671Z,41.80
2019-02-18T09:50:47.311Z,37.93
2019-02-18T09:51:50.955Z,43.80
2019-02-18T09:52:54.599Z,39.60
2019-02-18T09:53:58.247Z,38.20
2019-02-18T09:55:01.861Z,36.03
2019-02-18T09:56:05.611Z,44.50
2019-02-18T09:57:09.315Z,33.90
2019-02-18T09:58:12.977Z,38.90
2019-02-18T09:59:16.608Z,38.03
2019-02-18T10:00:20.291Z,37.57
2019-02-18T10:01:23.918Z,40.17
2019-02-18T10:02:27.490Z,35.40
2019-02-18T10:03:31.922Z,40.20
2019-02-18T10:04:36.424Z,36.20
2019-02-18T10:05:40.101Z,37.27
2019-02-18T10:06:43.749Z,33.50
2019-02-18T10:07:47.389Z,38.30
2019-02-18T10:08:53.632Z,32.03
2019-02-18T10:09:57.272Z,36.90
2019-02-18T10:11:00.977Z,33.87
2019-02-18T10:12:04.692Z,34.73
2019-02-18T10:13:13.972Z,34.17
2019-02-18T10:14:17.727Z,37.33
2019-02-18T10:15:21.381Z,30.73
2019-02-18T10:16:25.012Z,28.60
2019-02-18T10:17:28.659Z,31.20
2019-02-18T10:18:32.306Z,29.53
2019-02-18T10:19:36.109Z,35.10
2019-02-18T10:20:40.212Z,32.00
2019-02-18T10:21:44.219Z,36.90
2019-02-18T10:22:47.861Z,31.00
2019-02-18T10:23:51.422Z,30.70
2019-02-18T10:24:55.074Z,30.60
2019-02-18T10:25:58.713Z,26.37
2019-02-18T10:27:02.838Z,29.50
2019-02-18T10:28:06.459Z,26.50
2019-02-18T10:29:10.027Z,26.80
2019-02-18T10:30:13.674Z,28.80
2019-02-18T10:31:17.402Z,28.40
2019-02-18T10:32:21.071Z,28.17
2019-02-18T10:33:24.713Z,30.53
2019-02-18T10:34:28.598Z,29.53
2019-02-18T10:35:32.235Z,27.37
2019-02-18T10:36:35.971Z,26.50
2019-02-18T10:37:39.691Z,30.17
2019-02-18T10:38:43.335Z,24.97
2019-02-18T10:39:46.974Z,29.10
2019-02-18T10:40:50.618Z,28.97
2019-02-18T10:41:54.191Z,27.87
2019-02-18T10:42:57.863Z,26.87
2019-02-18T10:44:01.519Z,28.27
2019-02-18T10:45:07.780Z,28.83
2019-02-18T10:46:11.434Z,28.73
2019-02-18T10:47:15.069Z,29.10
2019-02-18T10:48:18.737Z,31.13
2019-02-18T10:49:23.278Z,29.03
2019-02-18T10:50:27.327Z,31.63
2019-02-18T10:51:31.350Z,27.80
2019-02-18T10:52:35.066Z,28.23
2019-02-18T10:53:38.751Z,27.87
2019-02-18T10:54:42.393Z,28.90
2019-02-18T10:55:46.034Z,30.93
2019-02-18T10:56:49.680Z,24.77
2019-02-18T10:57:53.312Z,33.47
2019-02-18T10:58:56.914Z,26.68
2019-02-18T11:00:00.555Z,27.90
2019-02-18T11:01:04.473Z,27.37
2019-02-18T11:02:08.674Z,27.52
2019-02-18T11:03:12.393Z,27.55
2019-02-18T11:04:16.241Z,26.80
2019-02-18T11:05:20.655Z,23.92
2019-02-18T11:06:24.753Z,26.27
2019-02-18T11:07:28.392Z,25.40
2019-02-18T11:08:32.042Z,26.27
2019-02-18T11:09:35.817Z,24.02
2019-02-18T11:10:39.474Z,25.72
2019-02-18T11:11:43.190Z,26.23
2019-02-18T11:12:47.682Z,22.58
2019-02-18T11:13:51.473Z,23.83
2019-02-18T11:14:55.201Z,37.70
2019-02-18T11:15:58.776Z,24.30
2019-02-18T11:17:02.409Z,22.52
2019-02-18T11:18:06.126Z,24.10
2019-02-18T11:19:09.767Z,27.27
2019-02-18T11:20:14.085Z,24.65
2019-02-18T11:21:17.992Z,21.27
2019-02-18T11:22:21.631Z,22.75
2019-02-18T11:23:25.203Z,26.68
2019-02-18T11:24:28.839Z,32.67
2019-02-18T11:25:32.508Z,24.35
2019-02-18T11:26:37.387Z,27.75
2019-02-18T11:27:41.039Z,21.55
2019-02-18T11:28:44.680Z,25.90
2019-02-18T11:29:48.322Z,22.10
2019-02-18T11:30:52.011Z,24.40
2019-02-18T11:31:56.091Z,24.87
2019-02-18T11:32:59.731Z,24.95
2019-02-18T11:34:03.406Z,20.60
2019-02-18T11:35:07.748Z,20.25
2019-02-18T11:36:11.422Z,20.70
2019-02-18T11:37:15.059Z,28.17
2019-02-18T11:38:18.703Z,18.98
2019-02-18T11:39:22.358Z,21.33
2019-02-18T11:40:25.947Z,20.43
2019-02-18T11:41:29.890Z,20.82
2019-02-18T11:42:34.218Z,22.00
2019-02-18T11:43:37.859Z,20.55
2019-02-18T11:44:41.569Z,23.45
2019-02-18T11:45:45.206Z,20.05
2019-02-18T11:46:48.865Z,19.37
2019-02-18T11:47:52.511Z,17.35
2019-02-18T11:48:56.148Z,17.42
2019-02-18T11:49:59.783Z,20.02
2019-02-18T11:51:03.432Z,19.98
2019-02-18T11:52:07.116Z,21.50
2019-02-18T11:53:11.691Z,20.02
2019-02-18T11:54:15.325Z,19.42
2019-02-18T11:55:18.958Z,18.10
2019-02-18T11:56:22.594Z,17.73
2019-02-18T11:57:26.642Z,16.42
2019-02-18T11:58:30.215Z,18.12
2019-02-18T11:59:33.859Z,20.55
2019-02-18T12:00:37.568Z,19.95
2019-02-18T12:01:41.207Z,21.90
2019-02-18T12:02:44.881Z,19.25
2019-02-18T12:03:48.581Z,15.80
2019-02-18T12:04:52.161Z,15.45
2019-02-18T12:05:55.795Z,18.92
2019-02-18T12:06:59.444Z,14.47
2019-02-18T12:08:03.193Z,18.75
2019-02-18T12:09:07.821Z,22.40
2019-02-18T12:10:12.556Z,19.65
2019-02-18T12:11:16.485Z,13.45
2019-02-18T12:12:20.172Z,16.60
2019-02-18T12:13:23.955Z,13.38
2019-02-18T12:14:27.706Z,13.80
2019-02-18T12:15:31.412Z,14.30
2019-02-18T12:16:35.050Z,16.45
2019-02-18T12:17:38.688Z,14.20
2019-02-18T12:18:42.373Z,15.00
2019-02-18T12:19:46.343Z,14.90
2019-02-18T12:20:49.991Z,15.28
2019-02-18T12:21:53.631Z,12.95
2019-02-18T12:22:57.273Z,13.38
2019-02-18T12:24:01.184Z,14.33
2019-02-18T12:25:06.220Z,18.85
2019-02-18T12:26:10.928Z,14.78
2019-02-18T12:27:14.559Z,14.30
2019-02-18T12:28:18.219Z,16.77
2019-02-18T12:29:26.138Z,13.95
2019-02-18T12:30:27.306Z,12.60
2019-02-18T12:31:30.941Z,14.07
2019-02-18T12:32:35.503Z,14.28
2019-02-18T12:33:39.161Z,15.05
2019-02-18T12:34:42.814Z,15.50
2019-02-18T12:35:46.534Z,14.83
2019-02-18T12:36:50.317Z,11.50
2019-02-18T12:37:55.530Z,13.50
2019-02-18T12:38:59.227Z,14.93
2019-02-18T12:40:03.881Z,14.93
2019-02-18T12:41:07.872Z,16.37
2019-02-18T12:42:11.516Z,11.60
2019-02-18T12:43:17.027Z,13.35
2019-02-18T12:44:20.672Z,15.03
2019-02-18T12:45:24.416Z,16.60
2019-02-18T12:46:28.051Z,13.55
2019-02-18T12:47:31.694Z,14.85
2019-02-18T12:48:35.405Z,18.35
2019-02-18T12:49:39.046Z,17.40
2019-02-18T12:50:42.784Z,16.75
2019-02-18T12:51:46.491Z,11.45
2019-02-18T12:52:50.142Z,16.10
2019-02-18T12:53:53.947Z,9.73
2019-02-18T12:55:00.292Z,13.95
2019-02-18T12:56:04.300Z,10.13
2019-02-18T12:57:07.929Z,12.40
2019-02-18T12:58:11.569Z,15.60
2019-02-18T12:59:15.205Z,19.45
2019-02-18T13:00:18.857Z,12.50
2019-02-18T13:01:22.882Z,12.82
2019-02-18T13:02:26.671Z,12.05
2019-02-18T13:03:30.372Z,11.22
2019-02-18T13:04:34.010Z,16.65
2019-02-18T13:05:37.645Z,16.77
2019-02-18T13:06:41.585Z,7.62
2019-02-18T13:07:45.493Z,8.25
2019-02-18T13:08:49.123Z,9.50
2019-02-18T13:09:52.684Z,11.38
2019-02-18T13:10:56.320Z,12.45
2019-02-18T13:11:59.998Z,11.73
2019-02-18T13:13:03.624Z,11.22
2019-02-18T13:14:07.260Z,11.40
2019-02-18T13:15:15.417Z,10.20
2019-02-18T13:16:19.127Z,11.28
2019-02-18T13:17:22.732Z,10.48
2019-02-18T13:18:26.432Z,9.73
2019-02-18T13:19:29.995Z,9.68
2019-02-18T13:20:33.917Z,11.33
2019-02-18T13:21:37.549Z,13.85
2019-02-18T13:22:41.295Z,12.33
2019-02-18T13:23:44.923Z,10.50
2019-02-18T13:24:48.937Z,10.28
2019-02-18T13:25:52.705Z,9.43
2019-02-18T13:26:56.342Z,7.47
2019-02-18T13:28:08.172Z,11.38
2019-02-18T13:29:05.367Z,8.95
2019-02-18T13:30:17.276Z,10.40
2019-02-18T13:31:20.909Z,11.05
2019-02-18T13:32:24.868Z,11.28
2019-02-18T13:33:28.538Z,9.58
2019-02-18T13:34:32.173Z,9.78
2019-02-18T13:35:36.186Z,7.33
2019-02-18T13:36:39.819Z,10.28
2019-02-18T13:37:43.456Z,11.97
2019-02-18T13:38:47.133Z,10.88
2019-02-18T13:39:50.769Z,11.55
2019-02-18T13:40:54.782Z,9.25
2019-02-18T13:41:58.426Z,10.58
2019-02-18T13:43:02.064Z,10.35
2019-02-18T13:44:05.798Z,8.23
2019-02-18T13:45:09.735Z,15.08